Portada
METAR-TAF:

METAR-TAF

Aeroports :

Cabo San Lucas, Mèxic

latitud: 22-56-51N, longitud: 109-56-13W, altitud: 210 m

Observació

L'informe es va fer fa 1 hora i 35 minuts, a les 16:40 UTC
Vent 4 kt del Sud/Sud-Est
Temperatura 20°C
Humitat 64%
Pressió 1018 hPa
Visibilitat: 16.1 km
Escasses núvols a una alçada de 12000 ft
Núvols disperses a una alçada de 24000 ft

METAR: MMSL 071640Z 16004KT 10SM FEW120 SCT240 20/13 A3006 RMK 8/038

Hora: 11:15 (18:15 UTC)

Pronòstic

L'informe es va fer fa 1 hora i 33 minuts, a les 16:42 UTC
Pronòstic vàlid del 07 a les 18 UTC al 08 a les 18 UTC
Vent 10 kt del Oest
Visibilitat: 10 km
Cel ennuvolat a una alçada de 25000 ft
A partir de les 08 a les 0600 UTC
Vent kt del Nord
Visibilitat: 10 km
Cel clar

TAF: MMSL 071642Z 0718/0818 28010KT P6SM BKN250 FM080600 00000KT P6SM SKC

Observacions i pronòstics meteorològics de més de 4000 aeroports (METAR i TAF).

Les estacions disponibles són els punts grocs i vermells al mapa.

Posi el ratolí al punt desitjat per veure el nom de l'estació.

Feu clic per veure les observacions i els pronòstics meteorològics.

Per canviar el mapa: feu clic els botons verds amb una creu de color negre per apropar; al botó verd amb un guió per allunyar la imatge; o en les fletxes verdes per a mapes adjacents.


METAR-TAF: